createdAt,value
2019-05-09T00:04:03.356Z,99169.67
2019-05-09T00:06:33.808Z,99154.00
2019-05-09T00:09:03.591Z,99150.75
2019-05-09T00:11:33.561Z,99150.52
2019-05-09T00:14:01.620Z,99150.39
2019-05-09T00:16:29.902Z,99154.31
2019-05-09T00:18:58.169Z,99152.30
2019-05-09T00:21:45.559Z,99147.90
2019-05-09T00:24:33.377Z,99144.73
2019-05-09T00:27:03.651Z,99144.73
2019-05-09T00:29:52.997Z,99147.07
2019-05-09T00:32:39.849Z,99154.91
2019-05-09T00:35:27.299Z,99148.77
2019-05-09T00:40:34.540Z,99158.62
2019-05-09T00:43:03.889Z,99153.77
2019-05-09T00:45:54.086Z,99154.23
2019-05-09T00:51:03.277Z,99156.38
2019-05-09T00:53:30.969Z,99156.97
2019-05-09T00:55:59.238Z,99152.45
2019-05-09T00:58:27.510Z,99152.10
2019-05-09T01:01:35.817Z,99144.98
2019-05-09T01:04:38.160Z,99148.89
2019-05-09T01:07:06.433Z,99144.50
2019-05-09T01:09:34.713Z,99149.02
2019-05-09T01:12:04.141Z,99144.38
2019-05-09T01:14:33.891Z,99146.20
2019-05-09T01:17:04.381Z,99145.96
2019-05-09T01:22:03.745Z,99152.83
2019-05-09T01:24:33.779Z,99157.22
2019-05-09T01:27:03.634Z,99153.55
2019-05-09T01:29:33.729Z,99153.19
2019-05-09T01:32:36.798Z,99150.45
2019-05-09T01:35:39.296Z,99158.28
2019-05-09T01:40:53.416Z,99157.70
2019-05-09T01:43:21.640Z,99154.25
2019-05-09T01:45:49.971Z,99158.66
2019-05-09T01:48:18.190Z,99154.23
2019-05-09T01:50:46.466Z,99148.91
2019-05-09T01:56:03.950Z,99158.05
2019-05-09T01:58:34.510Z,99155.08
2019-05-09T02:03:44.292Z,99152.94
2019-05-09T02:09:00.058Z,99144.39
2019-05-09T02:12:26.173Z,99146.06
2019-05-09T02:15:13.553Z,99152.82
2019-05-09T02:20:32.736Z,99161.27
2019-05-09T02:23:00.771Z,99158.30
2019-05-09T02:25:29.051Z,99160.77
2019-05-09T02:27:57.321Z,99149.76
2019-05-09T02:30:25.731Z,99156.64
2019-05-09T02:32:54.705Z,99155.79
2019-05-09T02:35:23.967Z,99155.81
2019-05-09T02:37:52.237Z,99154.03
2019-05-09T02:40:20.588Z,99151.89
2019-05-09T02:42:49.236Z,99156.16
2019-05-09T02:47:59.004Z,99162.09
2019-05-09T02:50:28.683Z,99152.46
2019-05-09T02:52:59.077Z,99153.88
2019-05-09T02:55:28.875Z,99153.31
2019-05-09T03:00:59.441Z,99154.48
2019-05-09T03:03:48.062Z,99155.32
2019-05-09T03:06:15.075Z,99153.05
2019-05-09T03:08:43.348Z,99150.33
2019-05-09T03:11:11.621Z,99148.31
2019-05-09T03:13:40.474Z,99148.55
2019-05-09T03:24:39.367Z,99154.95
2019-05-09T03:32:38.727Z,99160.14
2019-05-09T03:35:48.103Z,99167.61
2019-05-09T03:38:17.941Z,99170.94
2019-05-09T03:40:47.654Z,99169.97
2019-05-09T03:43:18.205Z,99174.58
2019-05-09T03:46:07.685Z,99175.30
2019-05-09T03:48:54.314Z,99181.72
2019-05-09T03:51:22.592Z,99181.02
2019-05-09T03:54:10.193Z,99183.40
2019-05-09T03:56:57.588Z,99184.30
2019-05-09T03:59:27.878Z,99183.85
2019-05-09T04:01:55.844Z,99182.91
2019-05-09T04:04:38.350Z,99192.42
2019-05-09T04:07:08.439Z,99192.42
2019-05-09T04:09:37.533Z,99195.27
2019-05-09T04:12:07.551Z,99189.93
2019-05-09T04:17:15.595Z,99188.16
2019-05-09T04:19:43.915Z,99192.06
2019-05-09T04:22:12.143Z,99190.05
2019-05-09T04:24:40.498Z,99188.64
2019-05-09T04:29:57.738Z,99181.89
2019-05-09T04:32:27.364Z,99182.98
2019-05-09T04:34:57.816Z,99190.57
2019-05-09T04:37:28.107Z,99185.59
2019-05-09T04:39:59.502Z,99184.75
2019-05-09T04:42:28.250Z,99194.72
2019-05-09T04:45:15.131Z,99196.39
2019-05-09T04:48:02.756Z,99201.65
2019-05-09T04:50:31.030Z,99201.65
2019-05-09T04:52:59.317Z,99203.77
2019-05-09T04:58:09.087Z,99211.45
2019-05-09T05:00:57.302Z,99205.88
2019-05-09T05:03:25.661Z,99205.16
2019-05-09T05:05:53.975Z,99199.70
2019-05-09T05:08:22.244Z,99204.69
2019-05-09T05:10:50.519Z,99202.66
2019-05-09T05:13:26.317Z,99213.24
2019-05-09T05:15:48.776Z,99213.72
2019-05-09T05:18:17.415Z,99219.06
2019-05-09T05:20:48.185Z,99220.09
2019-05-09T05:23:38.095Z,99219.22
2019-05-09T05:26:06.251Z,99215.20
2019-05-09T05:28:34.533Z,99219.61
2019-05-09T05:31:02.806Z,99222.23
2019-05-09T05:33:53.787Z,99227.95
2019-05-09T05:38:59.224Z,99222.85
2019-05-09T05:41:28.499Z,99220.19
2019-05-09T05:43:58.119Z,99237.45
2019-05-09T05:46:50.139Z,99242.02
2019-05-09T05:49:18.598Z,99240.66
2019-05-09T05:52:07.905Z,99250.95
2019-05-09T05:54:37.682Z,99249.76
2019-05-09T05:57:08.211Z,99245.87
2019-05-09T05:59:40.428Z,99249.44
2019-05-09T06:02:08.325Z,99257.65
2019-05-09T06:04:37.930Z,99263.47
2019-05-09T06:07:07.703Z,99261.92
2019-05-09T06:09:37.728Z,99265.48
2019-05-09T06:12:25.028Z,99257.17
2019-05-09T06:14:53.301Z,99257.17
2019-05-09T06:17:21.558Z,99272.62
2019-05-09T06:19:49.834Z,99270.36
2019-05-09T06:22:18.484Z,99273.09
2019-05-09T06:24:48.122Z,99281.98
2019-05-09T06:27:18.251Z,99287.13
2019-05-09T06:29:47.722Z,99275.00
2019-05-09T06:32:18.738Z,99281.42
2019-05-09T06:34:47.738Z,99282.09
2019-05-09T06:37:18.384Z,99286.49
2019-05-09T06:39:48.468Z,99281.77
2019-05-09T06:45:58.092Z,99276.55
2019-05-09T06:48:28.394Z,99290.80
2019-05-09T06:50:57.674Z,99288.31
2019-05-09T06:53:27.265Z,99291.76
2019-05-09T06:55:57.991Z,99294.73
2019-05-09T06:58:45.137Z,99294.25
2019-05-09T07:01:32.574Z,99292.31
2019-05-09T07:04:19.997Z,99295.28
2019-05-09T07:12:07.860Z,99302.02
2019-05-09T07:17:15.176Z,99309.34
2019-05-09T07:19:44.117Z,99310.58
2019-05-09T07:22:32.575Z,99308.92
2019-05-09T07:25:19.984Z,99306.06
2019-05-09T07:27:48.545Z,99309.75
2019-05-09T07:30:57.327Z,99309.58
2019-05-09T07:36:14.629Z,99321.94
2019-05-09T07:38:42.897Z,99312.97
2019-05-09T07:41:11.183Z,99321.70
2019-05-09T07:43:39.646Z,99319.86
2019-05-09T07:46:28.526Z,99323.91
2019-05-09T07:49:17.577Z,99320.52
2019-05-09T07:51:47.739Z,99318.74
2019-05-09T07:54:24.852Z,99316.11
2019-05-09T07:56:48.490Z,99321.05
2019-05-09T07:59:18.084Z,99321.58
2019-05-09T08:01:48.476Z,99322.11
2019-05-09T08:04:18.257Z,99323.73
2019-05-09T08:06:48.615Z,99327.30
2019-05-09T08:09:18.505Z,99327.45
2019-05-09T08:11:48.318Z,99333.76
2019-05-09T08:14:29.439Z,99331.00
2019-05-09T08:17:28.632Z,99331.00
2019-05-09T08:19:58.330Z,99341.34
2019-05-09T08:22:31.868Z,99342.64
2019-05-09T08:24:57.630Z,99346.50
2019-05-09T08:27:30.141Z,99347.67
2019-05-09T08:29:58.380Z,99355.88
2019-05-09T08:32:28.663Z,99347.48
2019-05-09T08:34:57.815Z,99356.27
2019-05-09T08:37:28.295Z,99352.60
2019-05-09T08:39:57.814Z,99361.16
2019-05-09T08:42:26.226Z,99357.14
2019-05-09T08:44:54.497Z,99363.73
2019-05-09T08:47:22.769Z,99362.20
2019-05-09T08:52:30.005Z,99368.41
2019-05-09T08:57:48.176Z,99370.47
2019-05-09T09:00:18.917Z,99374.41
2019-05-09T09:02:48.214Z,99378.74
2019-05-09T09:05:18.676Z,99375.98
2019-05-09T09:07:48.555Z,99380.97
2019-05-09T09:10:18.698Z,99385.78
2019-05-09T09:12:47.887Z,99392.38
2019-05-09T09:15:18.030Z,99387.27
2019-05-09T09:17:49.118Z,99391.86
2019-05-09T09:20:18.174Z,99389.81
2019-05-09T09:22:48.095Z,99386.14
2019-05-09T09:25:18.373Z,99391.08
2019-05-09T09:27:50.864Z,99394.55
2019-05-09T09:30:51.541Z,99388.83
2019-05-09T09:33:19.825Z,99389.99
2019-05-09T09:35:48.883Z,99395.48
2019-05-09T09:38:18.107Z,99402.87
2019-05-09T09:40:47.760Z,99398.34
2019-05-09T09:43:17.631Z,99399.22
2019-05-09T09:45:48.102Z,99399.16
2019-05-09T09:48:18.084Z,99403.76
2019-05-09T09:50:50.917Z,99403.32
2019-05-09T09:53:18.466Z,99409.70
2019-05-09T09:55:47.624Z,99416.16
2019-05-09T09:58:19.048Z,99412.42
2019-05-09T10:01:28.768Z,99409.62
2019-05-09T10:06:48.082Z,99417.64
2019-05-09T10:09:17.455Z,99424.72
2019-05-09T10:11:48.111Z,99422.09
2019-05-09T10:17:18.014Z,99419.05
2019-05-09T10:20:06.379Z,99433.36
2019-05-09T10:22:34.669Z,99431.36
2019-05-09T10:25:02.931Z,99432.47
2019-05-09T10:27:31.201Z,99430.61
2019-05-09T10:29:59.651Z,99433.86
2019-05-09T10:32:28.898Z,99434.90
2019-05-09T10:34:58.217Z,99438.08
2019-05-09T10:37:48.556Z,99435.77
2019-05-09T10:40:53.299Z,99444.64
2019-05-09T10:46:19.468Z,99442.85
2019-05-09T10:51:26.885Z,99431.20
2019-05-09T10:53:55.180Z,99428.44
2019-05-09T10:56:23.451Z,99435.66
2019-05-09T10:58:51.716Z,99432.13
2019-05-09T11:01:19.988Z,99432.47
2019-05-09T11:03:48.627Z,99423.19
2019-05-09T11:06:18.731Z,99428.03
2019-05-09T11:08:48.233Z,99424.82
2019-05-09T11:11:18.347Z,99428.59
2019-05-09T11:13:48.285Z,99431.46
2019-05-09T11:16:18.332Z,99429.82
2019-05-09T11:18:48.306Z,99440.55
2019-05-09T11:21:18.874Z,99437.04
2019-05-09T11:23:48.807Z,99437.63
2019-05-09T11:26:17.928Z,99440.89
2019-05-09T11:28:46.529Z,99440.30
2019-05-09T11:31:15.748Z,99448.88
2019-05-09T11:33:44.841Z,99448.79
2019-05-09T11:36:13.499Z,99449.91
2019-05-09T11:38:44.090Z,99450.33
2019-05-09T11:41:13.114Z,99447.05
2019-05-09T11:43:41.391Z,99449.48
2019-05-09T11:46:10.470Z,99444.52
2019-05-09T11:48:39.670Z,99440.20
2019-05-09T11:51:08.991Z,99439.25
2019-05-09T11:53:40.164Z,99441.26
2019-05-09T11:56:08.380Z,99443.09
2019-05-09T11:58:49.905Z,99432.47
2019-05-09T12:01:18.885Z,99432.47
2019-05-09T12:03:52.044Z,99448.11
2019-05-09T12:06:19.996Z,99449.57
2019-05-09T12:08:48.469Z,99447.79
2019-05-09T12:11:18.708Z,99448.02
2019-05-09T12:13:48.895Z,99454.00
2019-05-09T12:16:18.925Z,99453.67
2019-05-09T12:18:48.989Z,99447.50
2019-05-09T12:21:19.459Z,99450.27
2019-05-09T12:23:49.123Z,99458.31
2019-05-09T12:26:18.382Z,99451.91
2019-05-09T12:28:48.270Z,99454.48
2019-05-09T12:31:18.122Z,99450.33
2019-05-09T12:33:48.419Z,99454.66
2019-05-09T12:36:28.889Z,99453.52
2019-05-09T12:38:59.144Z,99451.19
2019-05-09T12:41:31.672Z,99447.81
2019-05-09T12:43:57.489Z,99437.16
2019-05-09T12:46:28.440Z,99448.59
2019-05-09T12:48:59.068Z,99441.02
2019-05-09T12:51:28.144Z,99445.46
2019-05-09T12:53:57.812Z,99446.58
2019-05-09T12:56:28.605Z,99444.70
2019-05-09T12:58:57.864Z,99446.22
2019-05-09T13:01:27.093Z,99450.76
2019-05-09T13:03:58.063Z,99445.66
2019-05-09T13:06:25.369Z,99443.45
2019-05-09T13:08:53.639Z,99442.06
2019-05-09T13:11:21.913Z,99446.05
2019-05-09T13:13:50.181Z,99436.47
2019-05-09T13:16:45.598Z,99438.13
2019-05-09T13:19:27.921Z,99431.33
2019-05-09T13:21:58.783Z,99433.11
2019-05-09T13:24:28.343Z,99444.89
2019-05-09T13:27:09.205Z,99440.17
2019-05-09T13:29:38.213Z,99442.77
2019-05-09T13:32:08.794Z,99440.15
2019-05-09T13:34:38.037Z,99441.27
2019-05-09T13:37:09.142Z,99437.48
2019-05-09T13:39:39.741Z,99439.98
2019-05-09T13:42:08.147Z,99445.22
2019-05-09T13:44:41.220Z,99442.59
2019-05-09T13:47:10.654Z,99450.20
2019-05-09T13:49:39.500Z,99444.06
2019-05-09T13:52:20.903Z,99448.99
2019-05-09T13:54:49.153Z,99448.99
2019-05-09T13:57:18.867Z,99445.72
2019-05-09T13:59:48.595Z,99455.55
2019-05-09T14:02:18.747Z,99448.73
2019-05-09T14:04:48.659Z,99441.00
2019-05-09T14:07:19.254Z,99448.44
2019-05-09T14:09:48.361Z,99451.02
2019-05-09T14:12:17.761Z,99454.77
2019-05-09T14:14:47.412Z,99449.87
2019-05-09T14:17:18.757Z,99451.21
2019-05-09T14:19:50.193Z,99456.36
2019-05-09T14:22:17.941Z,99459.11
2019-05-09T14:24:45.633Z,99464.95
2019-05-09T14:27:13.908Z,99454.99
2019-05-09T14:29:42.156Z,99453.94
2019-05-09T14:32:10.429Z,99468.96
2019-05-09T14:34:42.371Z,99463.78
2019-05-09T14:37:09.633Z,99470.72
2019-05-09T14:39:54.516Z,99464.09
2019-05-09T14:42:09.283Z,99459.05
2019-05-09T14:44:38.635Z,99458.76
2019-05-09T14:47:08.089Z,99452.77
2019-05-09T14:49:43.094Z,99455.59
2019-05-09T14:52:08.084Z,99453.82
2019-05-09T14:54:39.206Z,99449.11
2019-05-09T14:57:09.661Z,99448.47
2019-05-09T15:00:18.838Z,99459.40
2019-05-09T15:02:48.945Z,99456.95
2019-05-09T15:05:30.281Z,99460.77
2019-05-09T15:07:59.419Z,99460.77
2019-05-09T15:10:28.530Z,99467.73
2019-05-09T15:12:58.525Z,99464.73
2019-05-09T15:15:32.021Z,99461.14
2019-05-09T15:18:17.599Z,99471.16
2019-05-09T15:20:47.820Z,99479.64
2019-05-09T15:23:15.872Z,99469.70
2019-05-09T15:25:44.135Z,99474.47
2019-05-09T15:28:12.418Z,99470.95
2019-05-09T15:30:40.674Z,99476.49
2019-05-09T15:33:08.951Z,99477.72
2019-05-09T15:35:39.118Z,99480.85
2019-05-09T15:38:08.615Z,99481.16
2019-05-09T15:40:38.642Z,99486.40
2019-05-09T15:43:08.307Z,99488.70
2019-05-09T15:45:58.192Z,99499.97
2019-05-09T15:48:27.462Z,99510.24
2019-05-09T15:50:58.249Z,99502.11
2019-05-09T15:53:27.833Z,99506.25
2019-05-09T15:55:58.614Z,99506.54
2019-05-09T15:58:28.590Z,99505.35
2019-05-09T16:00:58.651Z,99512.98
2019-05-09T16:03:27.900Z,99510.55
2019-05-09T16:05:58.434Z,99506.75
2019-05-09T16:08:28.675Z,99508.84
2019-05-09T16:10:58.126Z,99511.58
2019-05-09T16:13:28.301Z,99505.34
2019-05-09T16:15:57.599Z,99503.54
2019-05-09T16:18:28.609Z,99507.31
2019-05-09T16:20:58.042Z,99513.05
2019-05-09T16:23:28.854Z,99514.44
2019-05-09T16:25:58.638Z,99509.27
2019-05-09T16:28:26.253Z,99514.91
2019-05-09T16:30:54.516Z,99513.34
2019-05-09T16:33:22.800Z,99513.52
2019-05-09T16:35:52.833Z,99511.17
2019-05-09T16:38:21.055Z,99514.84
2019-05-09T16:41:08.660Z,99508.73
2019-05-09T16:43:39.198Z,99508.73
2019-05-09T16:46:07.574Z,99505.09
2019-05-09T16:48:36.911Z,99502.15
2019-05-09T16:51:07.746Z,99507.62
2019-05-09T16:53:35.230Z,99508.25
2019-05-09T16:56:03.481Z,99508.55
2019-05-09T16:58:32.104Z,99508.41
2019-05-09T17:03:41.305Z,99508.67
2019-05-09T17:06:09.559Z,99510.69
2019-05-09T17:08:38.566Z,99512.28
2019-05-09T17:11:07.825Z,99510.34
2019-05-09T17:13:36.111Z,99507.43
2019-05-09T17:16:04.367Z,99514.22
2019-05-09T17:18:32.642Z,99511.52
2019-05-09T17:21:24.201Z,99514.26
2019-05-09T17:23:50.039Z,99514.19
2019-05-09T17:26:58.335Z,99512.45
2019-05-09T17:29:28.049Z,99510.59
2019-05-09T17:31:58.406Z,99513.19
2019-05-09T17:34:28.659Z,99510.61
2019-05-09T17:36:56.635Z,99517.97
2019-05-09T17:39:24.897Z,99512.00
2019-05-09T17:41:53.166Z,99516.78
2019-05-09T17:44:21.445Z,99511.31
2019-05-09T17:46:49.710Z,99518.59
2019-05-09T17:49:17.991Z,99527.45
2019-05-09T17:51:48.221Z,99521.70
2019-05-09T17:54:18.257Z,99527.72
2019-05-09T17:56:48.255Z,99527.10
2019-05-09T17:59:18.462Z,99525.66
2019-05-09T18:01:48.231Z,99533.52
2019-05-09T18:04:17.942Z,99531.92
2019-05-09T18:06:48.676Z,99535.80
2019-05-09T18:09:18.783Z,99538.02
2019-05-09T18:11:48.285Z,99545.36
2019-05-09T18:14:18.534Z,99544.75
2019-05-09T18:16:47.815Z,99549.95
2019-05-09T18:19:17.845Z,99547.66
2019-05-09T18:22:19.926Z,99553.27
2019-05-09T18:25:08.313Z,99555.56
2019-05-09T18:27:37.942Z,99555.56
2019-05-09T18:30:41.260Z,99560.53
2019-05-09T18:35:48.458Z,99567.05
2019-05-09T18:38:38.602Z,99568.64
2019-05-09T18:41:07.946Z,99565.70
2019-05-09T18:43:36.052Z,99577.84
2019-05-09T18:46:04.319Z,99576.23
2019-05-09T18:48:32.592Z,99574.99
2019-05-09T18:51:00.871Z,99578.23
2019-05-09T18:53:29.126Z,99580.08
2019-05-09T18:55:57.398Z,99581.30
2019-05-09T18:58:25.676Z,99590.05
2019-05-09T19:03:55.525Z,99590.70
2019-05-09T19:06:23.786Z,99585.80
2019-05-09T19:08:52.048Z,99580.89
2019-05-09T19:11:20.309Z,99587.53
2019-05-09T19:13:48.616Z,99588.75
2019-05-09T19:16:35.981Z,99587.47
2019-05-09T19:22:06.398Z,99597.13
2019-05-09T19:24:32.411Z,99598.78
2019-05-09T19:27:00.704Z,99603.04
2019-05-09T19:29:28.954Z,99599.55
2019-05-09T19:31:57.208Z,99606.11
2019-05-09T19:34:25.483Z,99600.00
2019-05-09T19:36:53.760Z,99601.89
2019-05-09T19:39:22.021Z,99608.45
2019-05-09T19:41:50.293Z,99602.56
2019-05-09T19:44:18.554Z,99604.44
2019-05-09T19:46:46.833Z,99602.50
2019-05-09T19:49:15.100Z,99605.83
2019-05-09T19:51:43.362Z,99603.81
2019-05-09T19:54:11.657Z,99595.61
2019-05-09T19:56:39.929Z,99600.84
2019-05-09T19:59:08.724Z,99600.66
2019-05-09T20:01:38.214Z,99605.07
2019-05-09T20:04:06.645Z,99603.92
2019-05-09T20:06:34.907Z,99602.61
2019-05-09T20:12:30.423Z,99609.77
2019-05-09T20:14:58.697Z,99611.56
2019-05-09T20:17:26.978Z,99613.23
2019-05-09T20:19:55.239Z,99613.78
2019-05-09T20:22:23.570Z,99608.41
2019-05-09T20:24:51.787Z,99618.42
2019-05-09T20:27:20.060Z,99618.96
2019-05-09T20:29:48.337Z,99618.63
2019-05-09T20:32:16.598Z,99628.65
2019-05-09T20:34:44.891Z,99626.50
2019-05-09T20:37:13.160Z,99627.50
2019-05-09T20:39:41.647Z,99625.14
2019-05-09T20:42:10.115Z,99627.95
2019-05-09T20:44:38.560Z,99631.11
2019-05-09T20:47:07.041Z,99633.16
2019-05-09T20:49:35.469Z,99634.58
2019-05-09T20:52:03.930Z,99629.58
2019-05-09T20:54:32.378Z,99636.05
2019-05-09T20:57:00.861Z,99635.36
2019-05-09T20:59:29.297Z,99633.58
2019-05-09T21:01:57.750Z,99637.06
2019-05-09T21:04:26.234Z,99634.42
2019-05-09T21:06:54.690Z,99643.61
2019-05-09T21:09:23.158Z,99643.47
2019-05-09T21:11:51.614Z,99641.06
2019-05-09T21:14:20.068Z,99642.62
2019-05-09T21:16:48.517Z,99644.39
2019-05-09T21:19:16.990Z,99644.39
2019-05-09T21:21:45.445Z,99643.68
2019-05-09T21:24:13.891Z,99644.41
2019-05-09T21:26:42.351Z,99651.18
2019-05-09T21:29:10.813Z,99656.15
2019-05-09T21:31:39.267Z,99655.56
2019-05-09T21:34:07.725Z,99650.09
2019-05-09T21:36:36.003Z,99655.56
2019-05-09T21:39:44.302Z,99658.53
2019-05-09T21:42:12.565Z,99657.59
2019-05-09T21:44:40.842Z,99653.50
2019-05-09T21:47:09.110Z,99661.00
2019-05-09T21:49:37.377Z,99661.25
2019-05-09T21:52:05.651Z,99661.52
2019-05-09T21:54:33.909Z,99661.88
2019-05-09T21:57:02.188Z,99666.39
2019-05-09T21:59:30.468Z,99672.33
2019-05-09T22:01:58.868Z,99671.05
2019-05-09T22:04:27.138Z,99672.13
2019-05-09T22:06:55.393Z,99678.66
2019-05-09T22:09:23.646Z,99677.23
2019-05-09T22:11:51.916Z,99679.80
2019-05-09T22:14:20.200Z,99678.95
2019-05-09T22:19:27.403Z,99680.75
2019-05-09T22:21:55.691Z,99686.34
2019-05-09T22:24:23.954Z,99686.83
2019-05-09T22:26:52.235Z,99688.60
2019-05-09T22:29:20.498Z,99695.63
2019-05-09T22:31:48.807Z,99687.06
2019-05-09T22:34:17.064Z,99684.33
2019-05-09T22:36:45.323Z,99688.02
2019-05-09T22:39:13.607Z,99690.27
2019-05-09T22:41:41.867Z,99693.73
2019-05-09T22:44:10.142Z,99687.41
2019-05-09T22:46:38.407Z,99686.34
2019-05-09T22:49:06.684Z,99696.95
2019-05-09T22:51:34.942Z,99693.27
2019-05-09T22:54:12.197Z,99696.35
2019-05-09T22:56:33.230Z,99694.17
2019-05-09T22:59:01.749Z,99696.81
2019-05-09T23:01:30.031Z,99696.89
2019-05-09T23:04:17.625Z,99700.70
2019-05-09T23:06:45.897Z,99699.77
2019-05-09T23:09:14.179Z,99710.38
2019-05-09T23:11:42.455Z,99706.80
2019-05-09T23:14:10.730Z,99700.80
2019-05-09T23:19:27.953Z,99697.70
2019-05-09T23:21:56.224Z,99699.13
2019-05-09T23:29:52.391Z,99694.66
2019-05-09T23:34:59.619Z,99680.94
2019-05-09T23:37:27.897Z,99685.06
2019-05-09T23:42:35.124Z,99679.47
2019-05-09T23:48:05.008Z,99682.45
2019-05-09T23:50:33.268Z,99672.81
2019-05-09T23:53:01.535Z,99683.39
2019-05-09T23:55:48.916Z,99676.48
2019-05-09T23:58:36.311Z,99688.44
